createdAt,value
2022-08-07T00:00:31.531Z,89.8
2022-08-07T00:05:29.569Z,88.3
2022-08-07T00:10:29.582Z,89.7
2022-08-07T00:15:25.432Z,89.8
2022-08-07T00:20:29.611Z,91.1
2022-08-07T00:25:21.090Z,91.1
2022-08-07T00:30:21.898Z,91.7
2022-08-07T00:35:17.461Z,90.7
2022-08-07T00:40:15.508Z,90.6
2022-08-07T00:45:16.101Z,93
2022-08-07T00:50:17.535Z,90.7
2022-08-07T00:55:10.467Z,95.3
2022-08-07T01:00:08.258Z,95
2022-08-07T01:05:06.266Z,95.4
2022-08-07T01:10:10.259Z,94.6
2022-08-07T01:15:03.814Z,96.4
2022-08-07T01:20:00.482Z,95.2
2022-08-07T01:24:58.714Z,92.5
2022-08-07T01:29:57.000Z,95.9
2022-08-07T01:34:55.346Z,90.6
2022-08-07T01:39:53.589Z,94
2022-08-07T01:44:51.545Z,95.3
2022-08-07T01:49:49.399Z,96.2
2022-08-07T01:54:47.223Z,97.1
2022-08-07T01:59:45.198Z,99.9
2022-08-07T02:04:52.454Z,100
2022-08-07T02:09:52.475Z,98.4
2022-08-07T02:14:40.619Z,100
2022-08-07T02:20:03.820Z,100
2022-08-07T02:24:35.319Z,100
2022-08-07T02:29:34.357Z,99.4
2022-08-07T02:34:32.003Z,99.8
2022-08-07T02:39:42.814Z,96
2022-08-07T02:44:34.531Z,97.2
2022-08-07T02:49:28.576Z,97.7
2022-08-07T02:54:25.363Z,89.1
2022-08-07T02:59:23.852Z,90.3
2022-08-07T03:04:21.523Z,94.8
2022-08-07T03:09:42.585Z,93.1
2022-08-07T03:14:17.715Z,94
2022-08-07T03:19:15.607Z,98.3
2022-08-07T03:24:17.748Z,98
2022-08-07T03:29:11.362Z,100
2022-08-07T03:34:09.820Z,100
2022-08-07T03:39:08.985Z,100
2022-08-07T03:44:05.590Z,100
2022-08-07T03:49:04.849Z,93.4
2022-08-07T03:54:32.839Z,93.3
2022-08-07T03:59:07.573Z,95.4
2022-08-07T04:03:58.479Z,100
2022-08-07T04:08:56.254Z,100
2022-08-07T04:14:09.158Z,95.6
2022-08-07T04:18:58.766Z,70
2022-08-07T04:24:02.091Z,65.1
2022-08-07T04:28:52.292Z,84.5
2022-08-07T04:33:54.874Z,91.2
2022-08-07T04:38:46.846Z,97.3
2022-08-07T04:44:10.939Z,100
2022-08-07T04:48:44.587Z,100
2022-08-07T04:54:02.126Z,98.2
2022-08-07T04:59:08.063Z,97.7
2022-08-07T05:04:00.832Z,92
2022-08-07T05:18:43.298Z,91.5
2022-08-07T05:23:41.103Z,90.3
2022-08-07T05:28:40.453Z,86.7
2022-08-07T05:33:37.189Z,90.7
2022-08-07T05:38:58.490Z,92.6
2022-08-07T05:43:43.591Z,90.6
2022-08-07T05:48:31.828Z,86.1
2022-08-07T05:54:08.852Z,80.4
2022-08-07T05:58:36.042Z,76.6
2022-08-07T06:03:53.308Z,73.3
2022-08-07T06:08:30.538Z,72
2022-08-07T06:14:10.404Z,54.5
2022-08-07T06:18:29.562Z,41.5
2022-08-07T06:23:47.120Z,37.3
2022-08-07T06:28:28.612Z,42.9
2022-08-07T06:33:22.617Z,52
2022-08-07T06:38:20.318Z,51.9
2022-08-07T06:43:21.162Z,42
2022-08-07T06:48:23.177Z,38
2022-08-07T06:54:12.533Z,36.8
2022-08-07T06:58:21.401Z,36.4
2022-08-07T07:03:17.177Z,37.2
2022-08-07T07:08:18.349Z,37.1
2022-08-07T07:13:13.544Z,37.3
2022-08-07T07:18:11.937Z,33.7
2022-08-07T07:24:05.267Z,34.8
2022-08-07T07:28:29.983Z,34
2022-08-07T07:33:07.656Z,35.5
2022-08-07T07:38:05.844Z,30
2022-08-07T07:43:11.786Z,35.7
2022-08-07T07:48:04.714Z,31.4
2022-08-07T07:53:03.508Z,29.7
2022-08-07T07:58:01.721Z,27.5
2022-08-07T08:03:01.426Z,27.6
2022-08-07T08:08:00.106Z,27.3
2022-08-07T08:12:59.141Z,26
2022-08-07T08:17:56.969Z,29.4
2022-08-07T08:22:54.448Z,30.2
2022-08-07T08:27:56.849Z,33.4
2022-08-07T08:32:42.233Z,37.5
2022-08-07T08:37:59.989Z,33.7
2022-08-07T08:42:45.587Z,29
2022-08-07T08:47:47.499Z,33.6
2022-08-07T08:52:36.168Z,38.9
2022-08-07T08:57:33.875Z,41.5
2022-08-07T09:02:34.928Z,43.6
2022-08-07T09:07:29.211Z,39.6
2022-08-07T09:12:32.309Z,34
2022-08-07T09:17:33.900Z,31.4
2022-08-07T09:24:29.545Z,29.3
2022-08-07T09:27:27.317Z,33.3
2022-08-07T09:32:19.006Z,34.5
2022-08-07T09:40:21.709Z,32.7
2022-08-07T09:46:28.947Z,29.1
2022-08-07T09:50:20.869Z,28.9
2022-08-07T09:55:29.163Z,28.2
2022-08-07T10:00:14.586Z,31.8
2022-08-07T10:05:12.246Z,29.3
2022-08-07T10:10:11.844Z,28
2022-08-07T10:15:07.583Z,29.3
2022-08-07T10:20:05.912Z,28.8
2022-08-07T10:25:04.306Z,29.7
2022-08-07T10:30:01.825Z,30.2
2022-08-07T10:34:59.806Z,30
2022-08-07T10:40:03.614Z,30.5
2022-08-07T10:44:55.766Z,30.5
2022-08-07T10:49:54.419Z,30.1
2022-08-07T10:55:00.959Z,27.5
2022-08-07T10:59:47.392Z,34.7
2022-08-07T11:04:41.750Z,32
2022-08-07T11:10:08.047Z,34
2022-08-07T11:14:46.634Z,32.4
2022-08-07T11:19:37.617Z,29.9
2022-08-07T11:24:34.953Z,30.4
2022-08-07T11:29:41.570Z,34.1
2022-08-07T11:34:28.595Z,33.2
2022-08-07T11:39:39.947Z,32.5
2022-08-07T11:44:26.970Z,27.6
2022-08-07T11:49:29.019Z,28.9
2022-08-07T11:54:25.490Z,32.3
2022-08-07T12:00:07.740Z,34.9
2022-08-07T12:04:17.392Z,36.7
2022-08-07T12:09:16.270Z,35
2022-08-07T12:14:11.865Z,39.7
2022-08-07T12:19:08.763Z,38.5
2022-08-07T12:24:12.295Z,38.9
2022-08-07T12:29:06.693Z,37.6
2022-08-07T12:34:04.427Z,38.2
2022-08-07T12:39:09.587Z,33.9
2022-08-07T12:44:05.441Z,33.4
2022-08-07T12:49:09.944Z,32.6
2022-08-07T12:54:03.563Z,36.9
2022-08-07T12:58:56.916Z,34.8
2022-08-07T13:03:56.561Z,32.8
2022-08-07T13:08:50.729Z,32.9
2022-08-07T13:13:49.626Z,34.9
2022-08-07T13:18:45.108Z,36.7
2022-08-07T13:24:00.256Z,39.8
2022-08-07T13:28:39.144Z,42.9
2022-08-07T13:34:14.458Z,43
2022-08-07T13:38:35.700Z,41.5
2022-08-07T13:43:34.207Z,40.1
2022-08-07T13:48:34.379Z,36.8
2022-08-07T13:53:36.109Z,37
2022-08-07T13:58:31.259Z,37.6
2022-08-07T14:03:28.863Z,40.6
2022-08-07T14:08:21.959Z,45.4
2022-08-07T14:13:19.028Z,43.8
2022-08-07T14:18:28.173Z,40.9
2022-08-07T14:23:17.934Z,42.9
2022-08-07T14:28:13.856Z,42.5
2022-08-07T14:33:12.140Z,44.7
2022-08-07T14:38:24.667Z,42.5
2022-08-07T14:43:56.359Z,41.6
2022-08-07T14:48:05.279Z,43.3
2022-08-07T14:53:06.509Z,52.2
2022-08-07T14:57:58.892Z,75
2022-08-07T15:02:56.776Z,86.1
2022-08-07T15:07:52.100Z,100
2022-08-07T15:12:54.615Z,99.8
2022-08-07T15:17:54.787Z,96.7
2022-08-07T15:22:51.542Z,96.8
2022-08-07T15:28:02.293Z,93.4
2022-08-07T15:32:50.912Z,91.4
2022-08-07T15:47:42.772Z,94.9
2022-08-07T15:52:36.271Z,93.5
2022-08-07T15:57:39.532Z,94.6
2022-08-07T16:02:33.650Z,96.6
2022-08-07T16:08:29.328Z,94.1
2022-08-07T16:12:37.992Z,95.5
2022-08-07T16:18:01.143Z,95.9
2022-08-07T16:22:31.785Z,97.4
2022-08-07T16:27:24.428Z,98.4
2022-08-07T16:32:32.797Z,99.8
2022-08-07T16:38:02.836Z,100
2022-08-07T16:42:18.014Z,100
2022-08-07T16:47:31.454Z,100
2022-08-07T16:52:48.961Z,100
2022-08-07T16:57:13.041Z,100
2022-08-07T17:02:09.281Z,100
2022-08-07T17:07:06.885Z,100
2022-08-07T17:12:33.653Z,100
2022-08-07T17:17:03.393Z,100
2022-08-07T17:22:01.205Z,100
2022-08-07T17:26:59.554Z,100
2022-08-07T17:32:02.433Z,100
2022-08-07T17:36:58.223Z,100
2022-08-07T17:42:03.162Z,100
2022-08-07T17:46:53.383Z,100
2022-08-07T17:52:00.261Z,100
2022-08-07T17:56:49.564Z,100
2022-08-07T18:01:47.075Z,100
2022-08-07T18:06:45.162Z,100
2022-08-07T18:12:08.462Z,100
2022-08-07T18:16:57.924Z,100
2022-08-07T18:21:58.473Z,100
2022-08-07T18:26:37.200Z,100
2022-08-07T18:31:38.727Z,100
2022-08-07T18:36:33.718Z,100
2022-08-07T18:41:37.736Z,100
2022-08-07T18:46:29.371Z,100
2022-08-07T18:52:09.756Z,100
2022-08-07T18:56:30.933Z,100
2022-08-07T19:02:06.868Z,100
2022-08-07T19:06:21.849Z,100
2022-08-07T19:11:35.413Z,100
2022-08-07T19:16:43.323Z,100
2022-08-07T19:21:45.212Z,100
2022-08-07T19:26:22.123Z,100
2022-08-07T19:31:29.784Z,100
2022-08-07T19:36:11.011Z,100
2022-08-07T19:41:09.061Z,100
2022-08-07T19:46:08.316Z,100
2022-08-07T19:51:05.105Z,100
2022-08-07T19:56:03.151Z,100
2022-08-07T20:01:01.794Z,100
2022-08-07T20:05:59.635Z,100
2022-08-07T20:11:01.792Z,100
2022-08-07T20:15:57.698Z,100
2022-08-07T20:20:53.552Z,100
2022-08-07T20:25:53.271Z,100
2022-08-07T20:30:49.640Z,100
2022-08-07T20:35:51.644Z,100
2022-08-07T20:40:45.577Z,100
2022-08-07T20:46:25.527Z,100
2022-08-07T20:50:41.170Z,100
2022-08-07T20:55:39.394Z,100
2022-08-07T21:00:41.920Z,100
2022-08-07T21:05:43.119Z,100
2022-08-07T21:10:33.540Z,100
2022-08-07T21:15:48.321Z,100
2022-08-07T21:20:29.901Z,100
2022-08-07T21:25:29.000Z,100
2022-08-07T21:30:25.420Z,100
2022-08-07T21:35:34.300Z,100
2022-08-07T21:40:21.627Z,100
2022-08-07T21:45:42.042Z,100
2022-08-07T21:50:17.704Z,100
2022-08-07T21:55:15.762Z,100
2022-08-07T22:00:20.453Z,100
2022-08-07T22:05:12.275Z,100
2022-08-07T22:10:09.799Z,100
2022-08-07T22:16:40.538Z,100
2022-08-07T22:20:05.724Z,100
2022-08-07T22:25:03.669Z,100
2022-08-07T22:30:01.689Z,100
2022-08-07T22:34:59.863Z,100
2022-08-07T22:39:58.039Z,100
2022-08-07T22:44:58.569Z,100
2022-08-07T22:49:55.128Z,100
2022-08-07T22:54:52.471Z,100
2022-08-07T22:59:50.772Z,100
2022-08-07T23:04:53.367Z,100
2022-08-07T23:10:01.614Z,100
2022-08-07T23:14:48.423Z,100
2022-08-07T23:19:48.305Z,100
2022-08-07T23:24:43.912Z,100
2022-08-07T23:29:44.116Z,100
2022-08-07T23:34:40.498Z,100
2022-08-07T23:39:41.116Z,100
2022-08-07T23:44:36.757Z,100
2022-08-07T23:49:42.368Z,100
2022-08-07T23:54:36.395Z,100
